Create Tblcommutelog Verified Points Advance Search
| # | Trip ID | Id Commuter | Trip Date | Trip Num | Current Lat | Current Lng | Delta Distance | Current Time | Activity | Activity Confidence | Current Speed | |
|---|---|---|---|---|---|---|---|---|---|---|---|---|
| 72941 | 251016_781283_16442909_0830 | 781283 | (not set) | (not set) | 38.8907284 | -77.0242255 | 0.3823 | 2025-10-16 08:37:38 | still | 100 | 0.60350299963343 | |
| 72942 | 251016_781283_16442909_0830 | 781283 | (not set) | (not set) | 38.8903209 | -77.0239782 | 0.4134 | 2025-10-16 08:38:17 | still | 100 | 0.54538789596502 | |
| 72943 | 251016_781283_16442909_0830 | 781283 | (not set) | (not set) | 38.8898845 | -77.0238165 | 0.4447 | 2025-10-16 08:38:55 | still | 100 | 0.63032535517269 | |
| 72944 | 251016_781283_16442909_0830 | 781283 | (not set) | (not set) | 38.8894328 | -77.0238665 | 0.476 | 2025-10-16 08:39:28 | still | 100 | 0.60797339222331 | |
| 72945 | 251016_781283_16442909_0830 | 781283 | (not set) | (not set) | 38.8889803 | -77.0238312 | 0.5072 | 2025-10-16 08:40:03 | still | 100 | 0.60797339222331 | |
| 72946 | 251016_781283_16442909_0830 | 781283 | (not set) | (not set) | 38.8876903 | -77.0246348 | 0.6324 | 2025-10-16 08:42:47 | still | 100 | 0.53644711078527 | |
| 72947 | 251016_781283_16442909_0830 | 781283 | (not set) | (not set) | 38.887749 | -77.0240572 | 0.601 | 2025-10-16 08:42:03 | still | 100 | 0.58562142927392 | |
| 72948 | 251016_781283_16442909_0830 | 781283 | (not set) | (not set) | 38.8880859 | -77.0236674 | 0.5697 | 2025-10-16 08:41:17 | still | 100 | 0.57668064409416 | |
| 72949 | 251016_781283_16442909_0830 | 781283 | (not set) | (not set) | 38.8885362 | -77.0237229 | 0.5384 | 2025-10-16 08:40:37 | still | 100 | 0.58115103668404 | |
| 72950 | 251016_781283_16442909_0830 | 781283 | (not set) | (not set) | 38.8872952 | -77.0257579 | 0.7258 | 2025-10-16 08:44:32 | still | 100 | 0.60350299963343 | |
| 72951 | 251016_781283_16442909_0830 | 781283 | (not set) | (not set) | 38.886422 | -77.0259342 | 0.7881 | 2025-10-16 08:45:32 | still | 100 | 0.59903260704355 | |
| 72952 | 251016_781283_16442909_0830 | 781283 | (not set) | (not set) | 38.8877061 | -77.0252111 | 0.6635 | 2025-10-16 08:43:21 | still | 100 | 0.59903260704355 | |
| 72953 | 251016_781283_16442909_0830 | 781283 | (not set) | (not set) | 38.8877462 | -77.0257881 | 0.6947 | 2025-10-16 08:43:49 | still | 100 | 0.61244378481318 | |
| 72954 | 251016_781283_16442909_0830 | 781283 | (not set) | (not set) | 38.8868447 | -77.0257334 | 0.757 | 2025-10-16 08:45:03 | still | 100 | 0.59456221445367 | |
| 72955 | 251016_781283_16442909_0830 | 781283 | (not set) | (not set) | 38.886103 | -77.0258951 | 0.7881 | 2025-10-16 08:45:56 | still | 100 | 0.59456221445367 | |
| 72956 | 251016_780809_16496249_0820 | 780809 | (not set) | (not set) | 38.901368881751 | -77.041624962197 | 22.6609 | 2025-10-16 09:22:09 | on_foot | 100 | 0.32633865906104 | |
| 72957 | 251016_789272_16415274_0850 | 789272 | (not set) | (not set) | 38.900985636414 | -77.039501257358 | 5.0674 | 2025-10-16 09:22:09 | in_vehicle | 100 | 3.0175149981671 | |
| 72958 | 251016_789579_16464305_0751 | 789579 | (not set) | (not set) | 38.89852542325 | -77.029191491986 | 36.1927 | 2025-10-16 09:22:09 | still | 33 | -0.44703925898772 | |
| 72959 | 251016_788500_16500126_0915 | 788500 | (not set) | (not set) | 38.933714986495 | -76.988895348077 | 0.2896 | 2025-10-16 09:22:10 | running | 100 | 0.63032535517269 | |
| 72960 | 251016_788500_16500126_0915 | 788500 | (not set) | (not set) | 38.933714986495 | -76.988895348077 | 0.2896 | 2025-10-16 09:22:10 | running | 100 | 0.63032535517269 |